New England — V7HF3 — position and weather

sailwx.info

Track history (hours):
 
Tides and Currents Weather Stations Pressure Air Temp Water Temp Dewpoint Dewpoint Depression Visibility Wind Speed Wind Dir Waves Ship Positions

New England

Last reported at 2014-Nov-19 03:27 UTC. Time now 2014-Nov-23 20:07 UTC.
Position N 42°31' W 070°37'.

Length 183 m; draft 7.4 m.

Type: Tanker. MMSI: 538002220.

Date/timePositionNaut miles runAvg speedWind from/ knotsBaromVisibWave heightAir tempDewpointWater temp
2014-Nov-19 03:27N 42°31' W 070°37'1213.7
2014-Nov-19 02:33N 42°23' W 070°51'1 0.0
2014-Nov-17 09:13N 42°24' W 070°50'2 3.3
2014-Nov-17 08:33N 42°26' W 070°48'5 4.3
2014-Nov-17 07:25N 42°28' W 070°42'  
2014-Nov-11 18:33N 42°29' W 070°40'1612.9
2014-Nov-11 17:19N 42°20' W 070°57'4 5.2
2014-Nov-11 16:30N 42°23' W 071°01'0 0.2
2014-Nov-11 14:07N 42°24' W 071°01'4 0.2
2014-Nov-10 12:32N 42°20' W 070°58'0 0.1
2014-Nov-10 11:31N 42°20' W 070°58'0 0.0
2014-Nov-10 10:25N 42°20' W 070°58'1 0.1
2014-Nov-10 03:19N 42°20' W 070°57'7 8.8
2014-Nov-10 02:33N 42°24' W 070°50'9 4.2
2014-Nov-10 00:21N 42°29' W 070°40'  
Track history (hours):
 
Tides and Currents Weather Stations Pressure Air Temp Water Temp Dewpoint Dewpoint Depression Visibility Wind Speed Wind Dir Waves Ship Positions

New England

Last reported at 2014-Nov-19 03:27 UTC. Time now 2014-Nov-23 20:07 UTC.
Position N 42°31' W 070°37'.

Length 183 m; draft 7.4 m.

Type: Tanker. MMSI: 538002220.

Date/timePositionNaut miles runAvg speedWind from/ knotsBaromVisibWave heightAir tempDewpointWater temp
2014-Nov-19 03:27N 42°31' W 070°37'1213.7
2014-Nov-19 02:33N 42°23' W 070°51'1 0.0
2014-Nov-17 09:13N 42°24' W 070°50'2 3.3
2014-Nov-17 08:33N 42°26' W 070°48'5 4.3
2014-Nov-17 07:25N 42°28' W 070°42'  
2014-Nov-11 18:33N 42°29' W 070°40'1612.9
2014-Nov-11 17:19N 42°20' W 070°57'4 5.2
2014-Nov-11 16:30N 42°23' W 071°01'0 0.2
2014-Nov-11 14:07N 42°24' W 071°01'4 0.2
2014-Nov-10 12:32N 42°20' W 070°58'0 0.1
2014-Nov-10 11:31N 42°20' W 070°58'0 0.0
2014-Nov-10 10:25N 42°20' W 070°58'1 0.1
2014-Nov-10 03:19N 42°20' W 070°57'7 8.8
2014-Nov-10 02:33N 42°24' W 070°50'9 4.2
2014-Nov-10 00:21N 42°29' W 070°40'  

Dump ship's entire track history